sensor_id;sensor_type;location;lat;lon;timestamp;pressure;altitude;pressure_sealevel;temperature;humidity
41690;BME280;27372;42.658;23.256;2023-04-20T00:01:06;93454.09;;;8.26;79.42
41690;BME280;27372;42.658;23.256;2023-04-20T00:03:31;93431.81;;;8.11;79.79
41690;BME280;27372;42.658;23.256;2023-04-20T00:05:57;93443.06;;;8.12;80.27
41690;BME280;27372;42.658;23.256;2023-04-20T00:08:26;93446.47;;;8.24;79.76
41690;BME280;27372;42.658;23.256;2023-04-20T00:10:51;93433.41;;;7.88;81.62
41690;BME280;27372;42.658;23.256;2023-04-20T00:13:17;93435.91;;;8.07;81.24
41690;BME280;27372;42.658;23.256;2023-04-20T00:15:42;93433.31;;;8.19;80.11
41690;BME280;27372;42.658;23.256;2023-04-20T00:18:07;93432.19;;;8.03;82.28
41690;BME280;27372;42.658;23.256;2023-04-20T00:20:33;93432.16;;;8.15;78.63
41690;BME280;27372;42.658;23.256;2023-04-20T00:22:59;93428.84;;;8.19;79.38
41690;BME280;27372;42.658;23.256;2023-04-20T00:25:25;93439.31;;;8.19;79.17
41690;BME280;27372;42.658;23.256;2023-04-20T00:27:50;93430.09;;;8.29;79.39
41690;BME280;27372;42.658;23.256;2023-04-20T00:30:15;93422.94;;;8.24;79.18
41690;BME280;27372;42.658;23.256;2023-04-20T00:32:41;93419.53;;;8.23;78.06
41690;BME280;27372;42.658;23.256;2023-04-20T00:35:06;93418.72;;;8.23;78.58
41690;BME280;27372;42.658;23.256;2023-04-20T00:37:32;93422.47;;;8.27;79.48
41690;BME280;27372;42.658;23.256;2023-04-20T00:39:57;93412.22;;;8.26;79.05
41690;BME280;27372;42.658;23.256;2023-04-20T00:42:23;93427.69;;;8.39;78.31
41690;BME280;27372;42.658;23.256;2023-04-20T00:44:48;93422.81;;;8.54;78.30
41690;BME280;27372;42.658;23.256;2023-04-20T00:47:15;93413.81;;;8.50;77.64
41690;BME280;27372;42.658;23.256;2023-04-20T00:49:40;93418.78;;;8.64;77.30
41690;BME280;27372;42.658;23.256;2023-04-20T00:52:06;93416.19;;;8.64;77.70
41690;BME280;27372;42.658;23.256;2023-04-20T00:54:32;93411.25;;;8.67;77.58
41690;BME280;27372;42.658;23.256;2023-04-20T00:56:58;93411.66;;;8.76;77.47
41690;BME280;27372;42.658;23.256;2023-04-20T00:59:24;93418.13;;;8.57;78.64
41690;BME280;27372;42.658;23.256;2023-04-20T01:01:50;93410.13;;;8.63;78.00
41690;BME280;27372;42.658;23.256;2023-04-20T01:04:15;93415.88;;;8.77;77.42
41690;BME280;27372;42.658;23.256;2023-04-20T01:06:41;93413.06;;;8.67;78.05
41690;BME280;27372;42.658;23.256;2023-04-20T01:09:06;93418.28;;;8.79;77.96
41690;BME280;27372;42.658;23.256;2023-04-20T01:11:32;93411.13;;;8.74;78.24
41690;BME280;27372;42.658;23.256;2023-04-20T01:13:57;93417.72;;;8.77;78.90
41690;BME280;27372;42.658;23.256;2023-04-20T01:16:23;93408.88;;;8.66;79.91
41690;BME280;27372;42.658;23.256;2023-04-20T01:18:49;93411.84;;;8.69;80.07
41690;BME280;27372;42.658;23.256;2023-04-20T01:21:19;93408.97;;;8.71;79.80
41690;BME280;27372;42.658;23.256;2023-04-20T01:23:48;93408.97;;;8.71;80.23
41690;BME280;27372;42.658;23.256;2023-04-20T01:26:15;93412.25;;;8.78;79.23
41690;BME280;27372;42.658;23.256;2023-04-20T01:28:42;93405.66;;;8.76;79.20
41690;BME280;27372;42.658;23.256;2023-04-20T01:31:08;93409.03;;;8.59;79.70
41690;BME280;27372;42.658;23.256;2023-04-20T01:33:34;93407.31;;;8.53;80.51
41690;BME280;27372;42.658;23.256;2023-04-20T01:36:00;93410.03;;;8.46;81.19
41690;BME280;27372;42.658;23.256;2023-04-20T01:38:26;93406.44;;;8.12;83.19
41690;BME280;27372;42.658;23.256;2023-04-20T01:40:52;93407.47;;;8.11;82.69
41690;BME280;27372;42.658;23.256;2023-04-20T01:43:19;93409.66;;;8.02;82.40
41690;BME280;27372;42.658;23.256;2023-04-20T01:45:44;93388.41;;;7.98;81.41
41690;BME280;27372;42.658;23.256;2023-04-20T01:48:10;93403.16;;;8.04;82.23
41690;BME280;27372;42.658;23.256;2023-04-20T01:50:35;93389.53;;;7.90;81.89
41690;BME280;27372;42.658;23.256;2023-04-20T01:53:01;93399.66;;;7.99;81.30
41690;BME280;27372;42.658;23.256;2023-04-20T01:55:26;93379.88;;;8.03;80.65
41690;BME280;27372;42.658;23.256;2023-04-20T01:57:51;93373.84;;;8.02;80.96
41690;BME280;27372;42.658;23.256;2023-04-20T02:00:17;93386.91;;;8.02;80.89
41690;BME280;27372;42.658;23.256;2023-04-20T02:02:43;93381.56;;;8.09;81.47
41690;BME280;27372;42.658;23.256;2023-04-20T02:05:08;93377.56;;;8.18;81.25
41690;BME280;27372;42.658;23.256;2023-04-20T02:07:34;93367.78;;;8.14;82.79
41690;BME280;27372;42.658;23.256;2023-04-20T02:09:59;93372.78;;;8.15;81.71
41690;BME280;27372;42.658;23.256;2023-04-20T02:12:24;93378.25;;;8.14;83.28
41690;BME280;27372;42.658;23.256;2023-04-20T02:14:50;93382.13;;;7.99;83.11
41690;BME280;27372;42.658;23.256;2023-04-20T02:17:16;93367.00;;;8.13;82.28
41690;BME280;27372;42.658;23.256;2023-04-20T02:19:42;93378.28;;;7.90;82.05
41690;BME280;27372;42.658;23.256;2023-04-20T02:22:07;93380.66;;;8.03;80.58
41690;BME280;27372;42.658;23.256;2023-04-20T02:24:32;93373.38;;;8.05;80.83
41690;BME280;27372;42.658;23.256;2023-04-20T02:26:58;93388.38;;;8.10;80.20
41690;BME280;27372;42.658;23.256;2023-04-20T02:29:24;93385.41;;;8.18;80.74
41690;BME280;27372;42.658;23.256;2023-04-20T02:31:50;93384.47;;;8.24;81.27
41690;BME280;27372;42.658;23.256;2023-04-20T02:34:15;93374.00;;;8.24;79.80
41690;BME280;27372;42.658;23.256;2023-04-20T02:36:41;93382.00;;;8.06;81.09
41690;BME280;27372;42.658;23.256;2023-04-20T02:39:06;93381.09;;;8.12;79.84
41690;BME280;27372;42.658;23.256;2023-04-20T02:41:34;93389.91;;;8.35;79.83
41690;BME280;27372;42.658;23.256;2023-04-20T02:44:00;93389.91;;;8.35;79.54
41690;BME280;27372;42.658;23.256;2023-04-20T02:46:25;93384.22;;;8.38;79.79
41690;BME280;27372;42.658;23.256;2023-04-20T02:48:51;93391.06;;;8.39;78.74
41690;BME280;27372;42.658;23.256;2023-04-20T02:51:16;93384.69;;;8.35;78.58
41690;BME280;27372;42.658;23.256;2023-04-20T02:53:41;93382.31;;;8.33;78.80
41690;BME280;27372;42.658;23.256;2023-04-20T02:56:07;93389.09;;;8.46;78.68
41690;BME280;27372;42.658;23.256;2023-04-20T02:58:32;93387.75;;;8.44;79.34
41690;BME280;27372;42.658;23.256;2023-04-20T03:01:11;93391.28;;;8.49;78.77
41690;BME280;27372;42.658;23.256;2023-04-20T03:03:36;93388.31;;;8.46;78.91
41690;BME280;27372;42.658;23.256;2023-04-20T03:06:02;93389.88;;;8.59;78.83
41690;BME280;27372;42.658;23.256;2023-04-20T03:08:27;93377.09;;;8.21;80.24
41690;BME280;27372;42.658;23.256;2023-04-20T03:10:52;93387.25;;;8.06;79.91
41690;BME280;27372;42.658;23.256;2023-04-20T03:13:18;93378.81;;;8.04;80.99
41690;BME280;27372;42.658;23.256;2023-04-20T03:15:43;93373.03;;;7.90;82.58
41690;BME280;27372;42.658;23.256;2023-04-20T03:18:09;93374.97;;;8.06;81.72
41690;BME280;27372;42.658;23.256;2023-04-20T03:20:34;93373.59;;;8.04;81.52
41690;BME280;27372;42.658;23.256;2023-04-20T03:23:00;93375.75;;;8.07;82.06
41690;BME280;27372;42.658;23.256;2023-04-20T03:25:25;93371.81;;;7.92;83.15
41690;BME280;27372;42.658;23.256;2023-04-20T03:27:51;93380.22;;;8.06;81.83
41690;BME280;27372;42.658;23.256;2023-04-20T03:30:16;93383.97;;;7.99;81.09
41690;BME280;27372;42.658;23.256;2023-04-20T03:32:42;93383.97;;;7.99;79.20
41690;BME280;27372;42.658;23.256;2023-04-20T03:35:07;93383.84;;;8.05;80.33
41690;BME280;27372;42.658;23.256;2023-04-20T03:37:35;93388.06;;;8.06;81.15
41690;BME280;27372;42.658;23.256;2023-04-20T03:40:01;93388.41;;;7.98;83.25
41690;BME280;27372;42.658;23.256;2023-04-20T03:42:26;93393.63;;;7.98;82.86
41690;BME280;27372;42.658;23.256;2023-04-20T03:44:51;93392.16;;;7.78;83.65
41690;BME280;27372;42.658;23.256;2023-04-20T03:47:17;93390.44;;;7.96;83.88
41690;BME280;27372;42.658;23.256;2023-04-20T03:49:42;93391.34;;;7.90;83.56
41690;BME280;27372;42.658;23.256;2023-04-20T03:52:07;93391.13;;;7.91;83.84
41690;BME280;27372;42.658;23.256;2023-04-20T03:54:33;93398.41;;;7.89;84.50
41690;BME280;27372;42.658;23.256;2023-04-20T03:56:58;93405.22;;;7.90;84.87
41690;BME280;27372;42.658;23.256;2023-04-20T03:59:24;93400.00;;;7.90;82.62
41690;BME280;27372;42.658;23.256;2023-04-20T04:01:49;93404.00;;;7.81;84.15
41690;BME280;27372;42.658;23.256;2023-04-20T04:04:16;93401.03;;;7.89;83.98
41690;BME280;27372;42.658;23.256;2023-04-20T04:06:41;93390.22;;;7.74;83.58
41690;BME280;27372;42.658;23.256;2023-04-20T04:09:07;93388.75;;;7.78;82.46
41690;BME280;27372;42.658;23.256;2023-04-20T04:11:33;93398.84;;;7.86;83.01
41690;BME280;27372;42.658;23.256;2023-04-20T04:13:58;93397.59;;;7.77;83.09
41690;BME280;27372;42.658;23.256;2023-04-20T04:16:24;93394.22;;;7.76;82.96
41690;BME280;27372;42.658;23.256;2023-04-20T04:18:49;93397.84;;;7.87;84.13
41690;BME280;27372;42.658;23.256;2023-04-20T04:21:15;93399.19;;;7.78;84.58
41690;BME280;27372;42.658;23.256;2023-04-20T04:23:40;93411.25;;;7.91;84.15
41690;BME280;27372;42.658;23.256;2023-04-20T04:26:08;93401.81;;;7.78;83.97
41690;BME280;27372;42.658;23.256;2023-04-20T04:28:36;93399.88;;;7.73;84.76
41690;BME280;27372;42.658;23.256;2023-04-20T04:31:01;93402.16;;;7.82;83.97
41690;BME280;27372;42.658;23.256;2023-04-20T04:33:30;93406.38;;;7.71;85.61
41690;BME280;27372;42.658;23.256;2023-04-20T04:35:57;93403.84;;;7.76;83.58
41690;BME280;27372;42.658;23.256;2023-04-20T04:38:23;93405.69;;;7.75;84.22
41690;BME280;27372;42.658;23.256;2023-04-20T04:40:48;93405.34;;;7.84;82.98
41690;BME280;27372;42.658;23.256;2023-04-20T04:43:14;93411.81;;;7.93;82.41
41690;BME280;27372;42.658;23.256;2023-04-20T04:45:40;93410.25;;;7.80;83.88
41690;BME280;27372;42.658;23.256;2023-04-20T04:48:06;93410.47;;;7.90;83.78
41690;BME280;27372;42.658;23.256;2023-04-20T04:50:33;93415.34;;;7.87;84.33
41690;BME280;27372;42.658;23.256;2023-04-20T04:52:59;93422.50;;;8.03;83.35
41690;BME280;27372;42.658;23.256;2023-04-20T04:55:24;93415.56;;;7.73;84.23
41690;BME280;27372;42.658;23.256;2023-04-20T04:57:50;93418.28;;;7.78;85.05
41690;BME280;27372;42.658;23.256;2023-04-20T05:00:15;93429.09;;;7.94;83.81
41690;BME280;27372;42.658;23.256;2023-04-20T05:02:41;93421.38;;;7.87;83.65
41690;BME280;27372;42.658;23.256;2023-04-20T05:05:07;93425.81;;;7.87;83.37
41690;BME280;27372;42.658;23.256;2023-04-20T05:07:33;93433.41;;;7.88;82.84
41690;BME280;27372;42.658;23.256;2023-04-20T05:09:58;93426.16;;;7.90;83.24
41690;BME280;27372;42.658;23.256;2023-04-20T05:12:24;93423.53;;;7.90;84.35
41690;BME280;27372;42.658;23.256;2023-04-20T05:14:50;93416.25;;;7.92;82.65
41690;BME280;27372;42.658;23.256;2023-04-20T05:17:16;93425.13;;;8.68;86.33
41690;BME280;27372;42.658;23.256;2023-04-20T05:19:41;93419.25;;;9.19;86.81
41690;BME280;27372;42.658;23.256;2023-04-20T05:22:08;93426.47;;;10.97;97.45
41690;BME280;27372;42.658;23.256;2023-04-20T05:24:34;93428.19;;;10.64;88.78
41690;BME280;27372;42.658;23.256;2023-04-20T05:26:59;93424.78;;;10.07;82.91
41690;BME280;27372;42.658;23.256;2023-04-20T05:29:25;93443.03;;;9.63;80.21
41690;BME280;27372;42.658;23.256;2023-04-20T05:31:51;93432.78;;;9.44;85.70
41690;BME280;27372;42.658;23.256;2023-04-20T05:34:16;93441.13;;;9.58;81.26
41690;BME280;27372;42.658;23.256;2023-04-20T05:36:42;93436.44;;;9.94;80.47
41690;BME280;27372;42.658;23.256;2023-04-20T05:39:07;93441.13;;;10.49;82.98
41690;BME280;27372;42.658;23.256;2023-04-20T05:41:34;93452.75;;;10.36;78.94
41690;BME280;27372;42.658;23.256;2023-04-20T05:43:59;93450.94;;;11.58;79.01
41690;BME280;27372;42.658;23.256;2023-04-20T05:46:25;93443.03;;;10.76;72.08
41690;BME280;27372;42.658;23.256;2023-04-20T05:48:50;93449.94;;;10.82;76.03
41690;BME280;27372;42.658;23.256;2023-04-20T05:51:16;93445.00;;;11.13;74.54
41690;BME280;27372;42.658;23.256;2023-04-20T05:53:41;93454.69;;;10.85;74.17
41690;BME280;27372;42.658;23.256;2023-04-20T05:56:07;93453.78;;;10.74;75.83
41690;BME280;27372;42.658;23.256;2023-04-20T05:58:33;93459.69;;;10.25;76.50
41690;BME280;27372;42.658;23.256;2023-04-20T06:00:59;93446.75;;;10.01;81.51
41690;BME280;27372;42.658;23.256;2023-04-20T06:03:27;93448.09;;;10.21;81.95
41690;BME280;27372;42.658;23.256;2023-04-20T06:05:52;93444.03;;;10.13;80.08
41690;BME280;27372;42.658;23.256;2023-04-20T06:08:18;93446.59;;;11.14;77.55
41690;BME280;27372;42.658;23.256;2023-04-20T06:10:43;93452.00;;;10.80;79.83
41690;BME280;27372;42.658;23.256;2023-04-20T06:13:09;93451.63;;;10.93;80.89
41690;BME280;27372;42.658;23.256;2023-04-20T06:15:34;93446.91;;;10.12;80.54
41690;BME280;27372;42.658;23.256;2023-04-20T06:18:00;93443.78;;;10.32;80.64
41690;BME280;27372;42.658;23.256;2023-04-20T06:20:26;93444.91;;;10.19;77.08
41690;BME280;27372;42.658;23.256;2023-04-20T06:22:52;93449.13;;;11.03;84.14
41690;BME280;27372;42.658;23.256;2023-04-20T06:25:18;93452.13;;;10.90;83.42
41690;BME280;27372;42.658;23.256;2023-04-20T06:27:44;93450.41;;;10.79;82.28
41690;BME280;27372;42.658;23.256;2023-04-20T06:30:09;93458.09;;;10.24;77.44
41690;BME280;27372;42.658;23.256;2023-04-20T06:32:35;93458.63;;;11.10;79.61
41690;BME280;27372;42.658;23.256;2023-04-20T06:35:02;93459.84;;;11.24;77.35
41690;BME280;27372;42.658;23.256;2023-04-20T06:37:28;93454.88;;;9.66;78.44
41690;BME280;27372;42.658;23.256;2023-04-20T06:39:54;93461.53;;;8.81;82.12
41690;BME280;27372;42.658;23.256;2023-04-20T06:42:20;93459.28;;;8.61;85.27
41690;BME280;27372;42.658;23.256;2023-04-20T06:44:45;93458.63;;;8.54;85.36
41690;BME280;27372;42.658;23.256;2023-04-20T06:47:11;93459.66;;;8.53;87.00
41690;BME280;27372;42.658;23.256;2023-04-20T06:49:36;93474.66;;;8.58;88.36
41690;BME280;27372;42.658;23.256;2023-04-20T06:52:03;93457.94;;;8.35;88.09
41690;BME280;27372;42.658;23.256;2023-04-20T06:54:29;93465.47;;;8.31;88.24
41690;BME280;27372;42.658;23.256;2023-04-20T06:56:54;93473.78;;;8.16;92.06
41690;BME280;27372;42.658;23.256;2023-04-20T06:59:20;93479.47;;;8.13;90.30
41690;BME280;27372;42.658;23.256;2023-04-20T07:01:45;93473.31;;;7.96;93.81
41690;BME280;27372;42.658;23.256;2023-04-20T07:04:11;93466.84;;;7.86;95.80
41690;BME280;27372;42.658;23.256;2023-04-20T07:06:36;93480.81;;;8.04;95.22
41690;BME280;27372;42.658;23.256;2023-04-20T07:09:01;93470.81;;;7.77;96.47
41690;BME280;27372;42.658;23.256;2023-04-20T07:11:28;93484.00;;;7.94;94.71
41690;BME280;27372;42.658;23.256;2023-04-20T07:13:53;93479.03;;;8.04;94.17
41690;BME280;27372;42.658;23.256;2023-04-20T07:16:19;93472.19;;;8.03;94.02
41690;BME280;27372;42.658;23.256;2023-04-20T07:18:44;93485.16;;;8.10;94.83
41690;BME280;27372;42.658;23.256;2023-04-20T07:21:09;93481.41;;;8.06;95.40
41690;BME280;27372;42.658;23.256;2023-04-20T07:23:35;93477.31;;;8.10;92.17
41690;BME280;27372;42.658;23.256;2023-04-20T07:26:00;93481.19;;;8.07;95.65
41690;BME280;27372;42.658;23.256;2023-04-20T07:28:26;93476.72;;;8.20;97.28
41690;BME280;27372;42.658;23.256;2023-04-20T07:30:51;93473.66;;;8.23;96.60
41690;BME280;27372;42.658;23.256;2023-04-20T07:33:16;93476.50;;;8.33;97.35
41690;BME280;27372;42.658;23.256;2023-04-20T07:35:42;93478.53;;;8.31;95.94
41690;BME280;27372;42.658;23.256;2023-04-20T07:38:07;93460.00;;;8.45;91.03
41690;BME280;27372;42.658;23.256;2023-04-20T07:40:32;93473.84;;;8.69;88.93
41690;BME280;27372;42.658;23.256;2023-04-20T07:42:58;93468.25;;;9.06;89.48
41690;BME280;27372;42.658;23.256;2023-04-20T07:45:23;93479.53;;;9.36;87.57
41690;BME280;27372;42.658;23.256;2023-04-20T07:47:49;93471.81;;;9.29;84.51
41690;BME280;27372;42.658;23.256;2023-04-20T07:50:16;93483.06;;;9.41;83.12
41690;BME280;27372;42.658;23.256;2023-04-20T07:52:42;93465.59;;;9.47;82.53
41690;BME280;27372;42.658;23.256;2023-04-20T07:55:11;93478.31;;;9.72;82.16
41690;BME280;27372;42.658;23.256;2023-04-20T07:57:38;93483.50;;;10.01;79.88
41690;BME280;27372;42.658;23.256;2023-04-20T08:00:04;93472.56;;;10.44;79.08
41690;BME280;27372;42.658;23.256;2023-04-20T08:02:31;93488.94;;;10.51;77.87
41690;BME280;27372;42.658;23.256;2023-04-20T08:04:57;93469.69;;;10.45;75.97
41690;BME280;27372;42.658;23.256;2023-04-20T08:07:22;93477.53;;;10.84;77.09
41690;BME280;27372;42.658;23.256;2023-04-20T08:09:48;93471.97;;;10.59;76.12
41690;BME280;27372;42.658;23.256;2023-04-20T08:12:14;93480.44;;;10.26;76.07
41690;BME280;27372;42.658;23.256;2023-04-20T08:14:39;93474.59;;;10.02;76.81
41690;BME280;27372;42.658;23.256;2023-04-20T08:17:06;93481.19;;;10.05;76.58
41690;BME280;27372;42.658;23.256;2023-04-20T08:19:31;93484.91;;;9.92;76.88
41690;BME280;27372;42.658;23.256;2023-04-20T08:21:58;93483.25;;;9.86;80.42
41690;BME280;27372;42.658;23.256;2023-04-20T08:24:23;93499.97;;;9.51;80.01
41690;BME280;27372;42.658;23.256;2023-04-20T08:26:49;93475.22;;;9.58;80.78
41690;BME280;27372;42.658;23.256;2023-04-20T08:29:14;93492.44;;;9.54;80.42
41690;BME280;27372;42.658;23.256;2023-04-20T08:31:40;93480.91;;;9.38;80.46
41690;BME280;27372;42.658;23.256;2023-04-20T08:34:05;93494.91;;;9.61;81.36
41690;BME280;27372;42.658;23.256;2023-04-20T08:36:31;93493.47;;;9.53;79.05
41690;BME280;27372;42.658;23.256;2023-04-20T08:39:05;93498.19;;;9.68;81.20
41690;BME280;27372;42.658;23.256;2023-04-20T08:41:31;93509.59;;;9.45;81.52
41690;BME280;27372;42.658;23.256;2023-04-20T08:43:57;93496.22;;;9.46;79.82
41690;BME280;27372;42.658;23.256;2023-04-20T08:46:23;93495.19;;;9.47;81.20
41690;BME280;27372;42.658;23.256;2023-04-20T08:48:49;93490.13;;;9.41;81.28
41690;BME280;27372;42.658;23.256;2023-04-20T08:51:15;93495.88;;;9.55;81.88
41690;BME280;27372;42.658;23.256;2023-04-20T08:53:42;93494.19;;;9.48;80.76
41690;BME280;27372;42.658;23.256;2023-04-20T08:56:08;93494.75;;;9.51;80.41
41690;BME280;27372;42.658;23.256;2023-04-20T08:58:33;93501.69;;;9.28;81.31
41690;BME280;27372;42.658;23.256;2023-04-20T09:00:59;93505.78;;;9.53;80.65
41690;BME280;27372;42.658;23.256;2023-04-20T09:03:36;93495.50;;;9.34;80.71
41690;BME280;27372;42.658;23.256;2023-04-20T09:06:13;93504.22;;;9.23;81.69
41690;BME280;27372;42.658;23.256;2023-04-20T09:08:40;93513.63;;;9.36;81.79
41690;BME280;27372;42.658;23.256;2023-04-20T09:11:06;93495.13;;;9.42;82.10
41690;BME280;27372;42.658;23.256;2023-04-20T09:13:32;93490.94;;;9.58;81.92
41690;BME280;27372;42.658;23.256;2023-04-20T09:16:09;93491.34;;;9.84;80.82
41690;BME280;27372;42.658;23.256;2023-04-20T09:18:36;93493.75;;;9.86;81.16
41690;BME280;27372;42.658;23.256;2023-04-20T09:21:09;93488.50;;;9.86;80.11
41690;BME280;27372;42.658;23.256;2023-04-20T09:23:34;93488.88;;;10.12;78.81
41690;BME280;27372;42.658;23.256;2023-04-20T09:26:00;93494.28;;;9.88;78.74
41690;BME280;27372;42.658;23.256;2023-04-20T09:28:35;93495.25;;;10.16;78.87
41690;BME280;27372;42.658;23.256;2023-04-20T09:31:03;93478.53;;;10.39;77.38
41690;BME280;27372;42.658;23.256;2023-04-20T09:33:28;93489.97;;;10.50;74.84
41690;BME280;27372;42.658;23.256;2023-04-20T09:36:02;93481.69;;;10.80;75.64
41690;BME280;27372;42.658;23.256;2023-04-20T09:38:28;93480.91;;;11.02;73.85
41690;BME280;27372;42.658;23.256;2023-04-20T09:40:57;93486.16;;;11.02;72.64
41690;BME280;27372;42.658;23.256;2023-04-20T09:43:27;93481.09;;;10.95;73.90
41690;BME280;27372;42.658;23.256;2023-04-20T09:45:53;93478.66;;;10.66;72.29
41690;BME280;27372;42.658;23.256;2023-04-20T09:48:20;93483.88;;;11.11;72.47
41690;BME280;27372;42.658;23.256;2023-04-20T09:50:46;93469.03;;;10.99;71.41
41690;BME280;27372;42.658;23.256;2023-04-20T09:53:17;93459.50;;;11.43;71.76
41690;BME280;27372;42.658;23.256;2023-04-20T09:55:47;93460.50;;;11.37;70.49
41690;BME280;27372;42.658;23.256;2023-04-20T09:58:13;93469.22;;;11.70;69.04
41690;BME280;27372;42.658;23.256;2023-04-20T10:00:38;93468.91;;;11.66;69.78
41690;BME280;27372;42.658;23.256;2023-04-20T10:03:04;93473.56;;;11.91;68.71
41690;BME280;27372;42.658;23.256;2023-04-20T10:05:36;93465.00;;;11.69;69.63
41690;BME280;27372;42.658;23.256;2023-04-20T10:08:04;93464.94;;;12.29;67.94
41690;BME280;27372;42.658;23.256;2023-04-20T10:10:30;93468.97;;;12.47;65.90
41690;BME280;27372;42.658;23.256;2023-04-20T10:13:06;93458.22;;;12.05;67.58
41690;BME280;27372;42.658;23.256;2023-04-20T10:15:39;93466.00;;;12.33;66.48
41690;BME280;27372;42.658;23.256;2023-04-20T10:18:19;93457.34;;;11.67;69.39
41690;BME280;27372;42.658;23.256;2023-04-20T10:20:47;93459.47;;;12.40;68.03
41690;BME280;27372;42.658;23.256;2023-04-20T10:23:13;93450.97;;;12.81;65.99
41690;BME280;27372;42.658;23.256;2023-04-20T10:25:40;93453.63;;;12.86;64.78
41690;BME280;27372;42.658;23.256;2023-04-20T10:28:06;93457.34;;;12.96;65.47
41690;BME280;27372;42.658;23.256;2023-04-20T10:30:36;93448.53;;;12.69;65.50
41690;BME280;27372;42.658;23.256;2023-04-20T10:33:05;93461.66;;;13.23;62.69
41690;BME280;27372;42.658;23.256;2023-04-20T10:38:14;93452.22;;;12.68;65.06
41690;BME280;27372;42.658;23.256;2023-04-20T10:40:40;93448.44;;;13.12;64.50
41690;BME280;27372;42.658;23.256;2023-04-20T10:43:26;93450.16;;;13.70;62.16
41690;BME280;27372;42.658;23.256;2023-04-20T10:45:51;93439.03;;;14.04;60.58
41690;BME280;27372;42.658;23.256;2023-04-20T10:48:17;93438.28;;;12.68;63.66
41690;BME280;27372;42.658;23.256;2023-04-20T10:50:43;93457.97;;;12.55;64.97
41690;BME280;27372;42.658;23.256;2023-04-20T10:53:21;93452.69;;;12.55;66.77
41690;BME280;27372;42.658;23.256;2023-04-20T10:55:57;93458.09;;;12.86;64.82
41690;BME280;27372;42.658;23.256;2023-04-20T10:58:23;93438.34;;;12.94;64.02
41690;BME280;27372;42.658;23.256;2023-04-20T11:01:03;93462.19;;;13.30;61.09
41690;BME280;27372;42.658;23.256;2023-04-20T11:03:30;93463.88;;;13.98;59.34
41690;BME280;27372;42.658;23.256;2023-04-20T11:05:57;93449.22;;;14.63;58.75
41690;BME280;27372;42.658;23.256;2023-04-20T11:08:38;93444.53;;;15.25;56.35
41690;BME280;27372;42.658;23.256;2023-04-20T11:11:05;93429.75;;;15.98;52.10
41690;BME280;27372;42.658;23.256;2023-04-20T11:13:41;93445.72;;;14.93;57.74
41690;BME280;27372;42.658;23.256;2023-04-20T11:16:14;93428.28;;;14.92;69.25
41690;BME280;27372;42.658;23.256;2023-04-20T11:18:52;93436.19;;;15.47;62.51
41690;BME280;27372;42.658;23.256;2023-04-20T11:21:18;93423.09;;;14.56;65.78
41690;BME280;27372;42.658;23.256;2023-04-20T11:23:47;93447.75;;;14.10;59.20
41690;BME280;27372;42.658;23.256;2023-04-20T11:26:14;93427.06;;;14.69;56.10
41690;BME280;27372;42.658;23.256;2023-04-20T11:28:52;93433.38;;;16.08;55.37
41690;BME280;27372;42.658;23.256;2023-04-20T11:31:18;93431.88;;;16.55;53.05
41690;BME280;27372;42.658;23.256;2023-04-20T11:33:43;93422.31;;;16.30;51.40
41690;BME280;27372;42.658;23.256;2023-04-20T11:36:20;93433.88;;;17.12;58.55
41690;BME280;27372;42.658;23.256;2023-04-20T11:38:47;93423.00;;;17.33;47.51
41690;BME280;27372;42.658;23.256;2023-04-20T11:41:13;93426.66;;;17.37;49.95
41690;BME280;27372;42.658;23.256;2023-04-20T11:43:38;93407.59;;;19.32;48.98
41690;BME280;27372;42.658;23.256;2023-04-20T11:46:12;93407.28;;;18.97;45.19
41690;BME280;27372;42.658;23.256;2023-04-20T11:48:39;93411.31;;;16.90;48.93
41690;BME280;27372;42.658;23.256;2023-04-20T11:51:04;93410.16;;;16.24;49.48
41690;BME280;27372;42.658;23.256;2023-04-20T11:53:30;93408.09;;;17.37;54.48
41690;BME280;27372;42.658;23.256;2023-04-20T11:55:56;93399.13;;;16.65;53.88
41690;BME280;27372;42.658;23.256;2023-04-20T11:58:21;93413.09;;;15.93;53.21
41690;BME280;27372;42.658;23.256;2023-04-20T12:00:47;93402.16;;;16.05;57.85
41690;BME280;27372;42.658;23.256;2023-04-20T12:03:12;93397.84;;;16.38;60.48
41690;BME280;27372;42.658;23.256;2023-04-20T12:05:37;93404.78;;;16.58;50.01
41690;BME280;27372;42.658;23.256;2023-04-20T12:08:03;93409.63;;;16.75;57.31
41690;BME280;27372;42.658;23.256;2023-04-20T12:10:29;93394.47;;;16.33;56.20
41690;BME280;27372;42.658;23.256;2023-04-20T12:12:55;93393.81;;;16.46;53.82
41690;BME280;27372;42.658;23.256;2023-04-20T12:15:21;93391.16;;;16.46;54.63
41690;BME280;27372;42.658;23.256;2023-04-20T12:17:46;93392.00;;;16.66;55.35
41690;BME280;27372;42.658;23.256;2023-04-20T12:20:12;93404.50;;;16.60;56.37
41690;BME280;27372;42.658;23.256;2023-04-20T12:22:38;93400.72;;;16.42;60.86
41690;BME280;27372;42.658;23.256;2023-04-20T12:25:04;93399.00;;;16.32;59.47
41690;BME280;27372;42.658;23.256;2023-04-20T12:27:30;93411.53;;;16.70;62.99
41690;BME280;27372;42.658;23.256;2023-04-20T12:29:55;93400.28;;;16.05;59.99
41690;BME280;27372;42.658;23.256;2023-04-20T12:32:23;93397.88;;;16.09;60.50
41690;BME280;27372;42.658;23.256;2023-04-20T12:34:49;93402.72;;;16.31;61.13
41690;BME280;27372;42.658;23.256;2023-04-20T12:37:14;93408.63;;;16.71;60.13
41690;BME280;27372;42.658;23.256;2023-04-20T12:39:41;93396.19;;;17.34;59.78
41690;BME280;27372;42.658;23.256;2023-04-20T12:42:06;93394.88;;;17.51;58.29
41690;BME280;27372;42.658;23.256;2023-04-20T12:44:31;93385.41;;;17.97;55.39
41690;BME280;27372;42.658;23.256;2023-04-20T12:46:57;93382.03;;;18.24;54.19
41690;BME280;27372;42.658;23.256;2023-04-20T12:49:22;93387.16;;;18.21;53.20
41690;BME280;27372;42.658;23.256;2023-04-20T12:51:47;93387.06;;;18.40;55.68
41690;BME280;27372;42.658;23.256;2023-04-20T12:54:13;93380.09;;;18.44;53.34